createdAt,value
2022-12-25T00:01:16.774Z,73.40
2022-12-25T00:03:43.958Z,72.00
2022-12-25T00:06:11.127Z,73.70
2022-12-25T00:08:39.552Z,73.10
2022-12-25T00:11:13.437Z,70.80
2022-12-25T00:13:41.170Z,71.90
2022-12-25T00:16:10.784Z,73.00
2022-12-25T00:18:37.644Z,71.80
2022-12-25T00:21:06.623Z,72.70
2022-12-25T00:23:34.675Z,73.30
2022-12-25T00:26:05.905Z,73.80
2022-12-25T00:28:32.890Z,71.80
2022-12-25T00:30:59.840Z,73.00
2022-12-25T00:33:26.769Z,73.00
2022-12-25T00:36:00.737Z,73.30
2022-12-25T00:38:28.015Z,72.90
2022-12-25T00:40:54.988Z,72.60
2022-12-25T00:43:21.967Z,71.80
2022-12-25T00:45:56.857Z,71.80
2022-12-25T00:48:24.398Z,72.70
2022-12-25T00:51:00.272Z,72.50
2022-12-25T00:53:28.516Z,72.00
2022-12-25T00:55:58.242Z,72.90
2022-12-25T00:58:27.532Z,72.90
2022-12-25T01:00:54.636Z,74.00
2022-12-25T01:03:21.650Z,72.90
2022-12-25T01:06:03.824Z,73.10
2022-12-25T01:08:33.366Z,74.30
2022-12-25T01:11:03.778Z,73.10
2022-12-25T01:13:32.267Z,73.40
2022-12-25T01:15:59.095Z,73.90
2022-12-25T01:18:25.999Z,74.30
2022-12-25T01:20:52.822Z,73.80
2022-12-25T01:23:19.705Z,74.30
2022-12-25T01:25:46.555Z,73.30
2022-12-25T01:28:13.744Z,72.70
2022-12-25T01:30:47.361Z,71.90
2022-12-25T01:33:14.202Z,73.70
2022-12-25T01:35:42.171Z,72.80
2022-12-25T01:38:09.262Z,73.60
2022-12-25T01:40:36.117Z,72.90
2022-12-25T01:43:02.940Z,72.00
2022-12-25T01:45:56.484Z,73.50
2022-12-25T01:48:37.048Z,72.10
2022-12-25T01:51:22.213Z,72.00
2022-12-25T01:53:49.098Z,72.10
2022-12-25T01:56:16.020Z,73.70
2022-12-25T01:58:43.054Z,73.20
2022-12-25T02:01:10.157Z,72.30
2022-12-25T02:03:37.231Z,72.30
2022-12-25T02:06:04.547Z,73.90
2022-12-25T02:08:31.646Z,72.40
2022-12-25T02:10:59.412Z,74.30
2022-12-25T02:13:26.309Z,74.70
2022-12-25T02:16:11.830Z,74.60
2022-12-25T02:18:53.492Z,72.60
2022-12-25T02:21:35.715Z,74.00
2022-12-25T02:24:36.841Z,72.70
2022-12-25T02:27:14.514Z,72.40
2022-12-25T02:30:03.239Z,73.70
2022-12-25T02:32:33.133Z,72.10
2022-12-25T02:35:09.975Z,73.60
2022-12-25T02:37:55.681Z,71.80
2022-12-25T02:40:40.106Z,72.80
2022-12-25T02:43:40.231Z,73.20
2022-12-25T02:46:29.142Z,74.00
2022-12-25T02:49:19.324Z,74.10
2022-12-25T02:52:10.798Z,71.70
2022-12-25T02:55:01.103Z,73.30
2022-12-25T02:57:52.172Z,72.40
2022-12-25T03:00:38.901Z,72.20
2022-12-25T03:03:28.343Z,72.30
2022-12-25T03:06:18.625Z,73.60
2022-12-25T03:08:49.947Z,73.70
2022-12-25T03:11:32.155Z,73.70
2022-12-25T03:14:26.548Z,74.20
2022-12-25T03:16:59.487Z,73.80
2022-12-25T03:19:49.198Z,74.40
2022-12-25T03:22:42.418Z,73.70
2022-12-25T03:25:28.408Z,74.30
2022-12-25T03:27:57.081Z,73.30
2022-12-25T03:30:55.819Z,73.30
2022-12-25T03:33:44.465Z,72.60
2022-12-25T03:36:34.925Z,74.80
2022-12-25T03:39:30.301Z,72.40
2022-12-25T03:42:20.479Z,73.70
2022-12-25T03:45:27.818Z,74.70
2022-12-25T03:48:09.051Z,72.30
2022-12-25T03:51:09.347Z,73.30
2022-12-25T03:54:01.377Z,73.90
2022-12-25T03:56:49.680Z,72.20
2022-12-25T03:59:39.064Z,72.90
2022-12-25T04:02:35.176Z,74.10
2022-12-25T04:05:20.868Z,74.80
2022-12-25T04:08:06.558Z,73.80
2022-12-25T04:10:52.000Z,73.20
2022-12-25T04:13:37.502Z,72.50
2022-12-25T04:16:23.162Z,73.60
2022-12-25T04:19:08.665Z,72.40
2022-12-25T04:21:54.352Z,73.80
2022-12-25T04:24:39.747Z,72.30
2022-12-25T04:27:25.272Z,73.20
2022-12-25T04:30:10.594Z,72.40
2022-12-25T04:33:09.619Z,74.30
2022-12-25T04:35:55.145Z,72.60
2022-12-25T04:38:22.336Z,72.20
2022-12-25T04:40:49.169Z,73.90
2022-12-25T04:43:15.946Z,74.20
2022-12-25T04:45:42.760Z,74.10
2022-12-25T04:48:09.564Z,74.30
2022-12-25T04:50:36.355Z,72.10
2022-12-25T04:53:03.172Z,73.00
2022-12-25T04:55:29.978Z,73.30
2022-12-25T04:57:56.827Z,72.00
2022-12-25T05:00:23.743Z,72.20
2022-12-25T05:02:50.774Z,72.90
2022-12-25T05:05:17.668Z,73.40
2022-12-25T05:07:44.554Z,73.60
2022-12-25T05:10:11.618Z,73.80
2022-12-25T05:12:38.412Z,71.50
2022-12-25T05:15:05.556Z,71.60
2022-12-25T05:17:32.559Z,71.60
2022-12-25T05:19:59.408Z,72.60
2022-12-25T05:22:26.611Z,71.70
2022-12-25T05:24:53.447Z,73.80
2022-12-25T05:27:20.278Z,72.40
2022-12-25T05:29:47.073Z,72.90
2022-12-25T05:32:14.192Z,72.40
2022-12-25T05:34:41.018Z,73.00
2022-12-25T05:37:07.921Z,73.70
2022-12-25T05:39:34.776Z,72.30
2022-12-25T05:42:01.823Z,71.70
2022-12-25T05:44:28.616Z,74.10
2022-12-25T05:46:55.487Z,71.60
2022-12-25T05:49:22.701Z,73.30
2022-12-25T05:51:49.542Z,71.80
2022-12-25T05:54:16.979Z,71.80
2022-12-25T05:56:43.833Z,73.90
2022-12-25T05:59:10.690Z,71.90
2022-12-25T06:01:37.547Z,73.20
2022-12-25T06:04:11.920Z,72.80
2022-12-25T06:06:39.368Z,71.70
2022-12-25T06:09:06.580Z,73.70
2022-12-25T06:11:33.460Z,73.00
2022-12-25T06:14:00.266Z,71.70
2022-12-25T06:16:27.158Z,73.60
2022-12-25T06:18:54.331Z,72.10
2022-12-25T06:21:21.364Z,71.80
2022-12-25T06:23:48.598Z,72.80
2022-12-25T06:26:17.890Z,72.90
2022-12-25T06:28:45.345Z,72.50
2022-12-25T06:31:18.672Z,73.90
2022-12-25T06:33:46.054Z,71.80
2022-12-25T06:36:15.653Z,72.90
2022-12-25T06:38:42.743Z,71.90
2022-12-25T06:41:17.765Z,73.10
2022-12-25T06:43:49.368Z,71.90
2022-12-25T06:46:16.699Z,72.90
2022-12-25T06:48:50.336Z,73.60
2022-12-25T06:51:25.533Z,74.10
2022-12-25T06:53:53.687Z,71.80
2022-12-25T06:56:27.947Z,73.00
2022-12-25T06:58:57.380Z,73.70
2022-12-25T07:01:34.625Z,72.80
2022-12-25T07:04:04.638Z,71.80
2022-12-25T07:06:31.713Z,72.90
2022-12-25T07:08:58.905Z,73.20
2022-12-25T07:11:25.975Z,73.00
2022-12-25T07:13:52.827Z,71.80
2022-12-25T07:16:20.238Z,74.00
2022-12-25T07:18:47.240Z,73.10
2022-12-25T07:21:17.475Z,72.80
2022-12-25T07:23:46.090Z,71.80
2022-12-25T07:26:14.035Z,73.10
2022-12-25T07:28:41.304Z,72.40
2022-12-25T07:31:11.771Z,74.10
2022-12-25T07:33:39.167Z,70.20
2022-12-25T07:36:07.632Z,73.00
2022-12-25T07:38:39.909Z,71.60
2022-12-25T07:41:13.356Z,73.30
2022-12-25T07:43:40.605Z,71.70
2022-12-25T07:46:07.727Z,74.00
2022-12-25T07:48:35.548Z,73.50
2022-12-25T07:51:07.832Z,71.60
2022-12-25T07:53:36.346Z,71.50
2022-12-25T07:56:10.440Z,72.70
2022-12-25T07:58:37.377Z,71.50
2022-12-25T08:01:25.401Z,71.50
2022-12-25T08:04:00.980Z,72.10
2022-12-25T08:06:32.175Z,72.90
2022-12-25T08:09:07.649Z,72.50
2022-12-25T08:11:34.632Z,73.90
2022-12-25T08:14:01.903Z,73.80
2022-12-25T08:16:28.792Z,74.20
2022-12-25T08:18:55.639Z,71.80
2022-12-25T08:21:22.466Z,71.80
2022-12-25T08:23:49.327Z,74.30
2022-12-25T08:26:19.870Z,74.00
2022-12-25T08:28:47.840Z,73.50
2022-12-25T08:31:23.783Z,74.60
2022-12-25T08:33:52.321Z,72.20
2022-12-25T08:36:20.051Z,72.20
2022-12-25T08:38:47.793Z,74.00
2022-12-25T08:41:15.641Z,73.90
2022-12-25T08:43:42.839Z,73.40
2022-12-25T08:46:10.393Z,73.00
2022-12-25T08:48:37.946Z,75.00
2022-12-25T08:51:08.299Z,74.80
2022-12-25T08:53:35.104Z,72.60
2022-12-25T08:56:06.505Z,75.00
2022-12-25T08:58:34.473Z,73.70
2022-12-25T09:01:01.946Z,73.20
2022-12-25T09:03:28.878Z,75.10
2022-12-25T09:05:56.064Z,72.90
2022-12-25T09:08:23.040Z,75.20
2022-12-25T09:10:49.934Z,72.70
2022-12-25T09:13:16.888Z,73.80
2022-12-25T09:15:43.798Z,75.00
2022-12-25T09:18:11.611Z,72.40
2022-12-25T09:20:38.609Z,73.00
2022-12-25T09:23:11.692Z,74.50
2022-12-25T09:25:40.591Z,73.50
2022-12-25T09:28:07.561Z,72.20
2022-12-25T09:30:34.492Z,73.20
2022-12-25T09:33:01.394Z,72.20
2022-12-25T09:35:28.237Z,73.00
2022-12-25T09:37:55.068Z,73.30
2022-12-25T09:40:23.494Z,72.40
2022-12-25T09:42:54.675Z,72.40
2022-12-25T09:45:33.995Z,73.70
2022-12-25T09:48:00.959Z,72.60
2022-12-25T09:50:40.128Z,72.60
2022-12-25T09:53:15.113Z,72.50
2022-12-25T09:55:52.913Z,72.40
2022-12-25T09:58:19.771Z,73.80
2022-12-25T10:01:00.362Z,73.20
2022-12-25T10:03:33.163Z,72.80
2022-12-25T10:06:21.266Z,72.80
2022-12-25T10:09:10.663Z,72.50
2022-12-25T10:12:06.177Z,72.70
2022-12-25T10:14:47.870Z,72.60
2022-12-25T10:17:52.673Z,72.80
2022-12-25T10:20:25.269Z,72.70
2022-12-25T10:22:57.679Z,72.90
2022-12-25T10:25:25.662Z,74.30
2022-12-25T10:28:04.766Z,73.20
2022-12-25T10:30:32.466Z,72.80
2022-12-25T10:33:00.290Z,74.40
2022-12-25T10:35:29.503Z,72.50
2022-12-25T10:38:02.851Z,73.80
2022-12-25T10:40:54.611Z,73.20
2022-12-25T10:43:28.594Z,72.00
2022-12-25T10:45:55.570Z,72.20
2022-12-25T10:48:30.613Z,73.90
2022-12-25T10:50:57.566Z,73.90
2022-12-25T10:53:26.906Z,72.40
2022-12-25T10:55:59.912Z,72.70
2022-12-25T10:58:27.757Z,71.90
2022-12-25T11:01:03.617Z,71.70
2022-12-25T11:03:33.893Z,71.30
2022-12-25T11:06:02.154Z,72.40
2022-12-25T11:08:31.356Z,71.80
2022-12-25T11:11:06.121Z,71.70
2022-12-25T11:13:37.183Z,71.50
2022-12-25T11:16:10.788Z,71.60
2022-12-25T11:18:46.918Z,70.50
2022-12-25T11:21:16.681Z,70.70
2022-12-25T11:23:49.360Z,70.40
2022-12-25T11:26:18.296Z,70.90
2022-12-25T11:28:48.828Z,71.30
2022-12-25T11:31:21.419Z,71.60
2022-12-25T11:34:03.247Z,72.00
2022-12-25T11:36:43.633Z,70.30
2022-12-25T11:39:16.514Z,71.90
2022-12-25T11:41:44.485Z,71.50
2022-12-25T11:44:33.542Z,72.50
2022-12-25T11:47:12.873Z,71.90
2022-12-25T11:49:50.621Z,70.70
2022-12-25T11:52:21.449Z,71.20
2022-12-25T11:54:57.290Z,70.80
2022-12-25T11:57:28.874Z,71.00
2022-12-25T12:00:06.855Z,73.50
2022-12-25T12:02:48.845Z,73.60
2022-12-25T12:05:35.282Z,71.30
2022-12-25T12:08:04.932Z,71.30
2022-12-25T12:10:50.591Z,71.60
2022-12-25T12:13:43.995Z,71.80
2022-12-25T12:16:11.146Z,71.60
2022-12-25T12:18:38.289Z,74.20
2022-12-25T12:21:24.772Z,74.40
2022-12-25T12:23:57.565Z,72.50
2022-12-25T12:26:30.612Z,73.80
2022-12-25T12:29:00.121Z,74.90
2022-12-25T12:31:38.772Z,74.30
2022-12-25T12:34:06.532Z,73.60
2022-12-25T12:36:36.541Z,73.00
2022-12-25T12:39:06.008Z,74.40
2022-12-25T12:41:59.207Z,73.50
2022-12-25T12:44:31.939Z,71.90
2022-12-25T12:46:59.550Z,72.20
2022-12-25T12:49:29.265Z,72.00
2022-12-25T12:52:25.946Z,72.90
2022-12-25T12:55:02.623Z,71.20
2022-12-25T12:57:39.818Z,71.00
2022-12-25T13:00:19.205Z,71.10
2022-12-25T13:03:14.362Z,70.40
2022-12-25T13:05:48.120Z,70.20
2022-12-25T13:08:48.253Z,70.90
2022-12-25T13:11:20.038Z,69.80
2022-12-25T13:13:48.388Z,70.10
2022-12-25T13:16:36.872Z,70.00
2022-12-25T13:19:12.584Z,69.80
2022-12-25T13:21:39.494Z,70.60
2022-12-25T13:24:18.864Z,70.80
2022-12-25T13:26:45.706Z,70.70
2022-12-25T13:29:31.616Z,70.90
2022-12-25T13:32:00.175Z,69.80
2022-12-25T13:34:48.050Z,70.00
2022-12-25T13:37:17.801Z,69.70
2022-12-25T13:39:51.810Z,70.00
2022-12-25T13:42:25.207Z,72.00
2022-12-25T13:45:06.463Z,69.90
2022-12-25T13:47:36.191Z,70.00
2022-12-25T13:50:32.348Z,70.00
2022-12-25T13:53:16.008Z,69.80
2022-12-25T13:55:46.639Z,70.00
2022-12-25T13:58:23.750Z,71.90
2022-12-25T14:00:53.252Z,71.70
2022-12-25T14:03:27.971Z,71.20
2022-12-25T14:05:59.864Z,69.90
2022-12-25T14:08:32.265Z,71.20
2022-12-25T14:11:03.720Z,69.60
2022-12-25T14:13:33.521Z,69.40
2022-12-25T14:16:01.122Z,69.40
2022-12-25T14:18:29.591Z,71.50
2022-12-25T14:21:05.716Z,69.40
2022-12-25T14:23:44.103Z,69.40
2022-12-25T14:26:32.891Z,69.20
2022-12-25T14:29:05.655Z,68.90
2022-12-25T14:31:33.645Z,70.60
2022-12-25T14:34:03.068Z,70.40
2022-12-25T14:36:31.417Z,68.90
2022-12-25T14:39:04.814Z,70.30
2022-12-25T14:41:38.156Z,70.90
2022-12-25T14:44:38.667Z,71.00
2022-12-25T14:47:11.619Z,68.50
2022-12-25T14:49:38.627Z,69.40
2022-12-25T14:52:46.669Z,68.70
2022-12-25T14:55:25.283Z,68.40
2022-12-25T14:57:56.054Z,68.50
2022-12-25T15:00:24.916Z,69.40
2022-12-25T15:02:54.026Z,68.50
2022-12-25T15:05:30.692Z,69.50
2022-12-25T15:08:19.200Z,69.80
2022-12-25T15:10:59.669Z,68.90
2022-12-25T15:13:28.358Z,68.50
2022-12-25T15:16:04.180Z,69.00
2022-12-25T15:18:38.345Z,68.30
2022-12-25T15:21:05.430Z,70.30
2022-12-25T15:23:32.350Z,68.30
2022-12-25T15:25:59.194Z,68.20
2022-12-25T15:28:26.012Z,70.70
2022-12-25T15:30:52.893Z,70.20
2022-12-25T15:33:19.827Z,68.20
2022-12-25T15:35:46.838Z,68.20
2022-12-25T15:38:14.058Z,68.20
2022-12-25T15:40:41.578Z,68.00
2022-12-25T15:43:38.819Z,67.80
2022-12-25T15:45:59.847Z,69.80
2022-12-25T15:48:26.683Z,68.20
2022-12-25T15:50:53.537Z,67.80
2022-12-25T15:53:20.470Z,67.90
2022-12-25T15:55:47.490Z,69.60
2022-12-25T15:58:15.165Z,69.60
2022-12-25T16:00:42.144Z,67.80
2022-12-25T16:03:09.084Z,70.20
2022-12-25T16:05:36.167Z,69.60
2022-12-25T16:08:02.954Z,67.70
2022-12-25T16:10:34.907Z,69.70
2022-12-25T16:13:05.178Z,67.70
2022-12-25T16:15:32.077Z,68.90
2022-12-25T16:17:58.988Z,69.80
2022-12-25T16:20:25.799Z,67.50
2022-12-25T16:22:52.628Z,69.30
2022-12-25T16:25:20.232Z,68.30
2022-12-25T16:27:47.683Z,69.40
2022-12-25T16:30:16.896Z,67.30
2022-12-25T16:32:45.257Z,67.20
2022-12-25T16:35:12.428Z,67.30
2022-12-25T16:37:39.755Z,69.20
2022-12-25T16:40:10.698Z,67.40
2022-12-25T16:42:38.306Z,67.10
2022-12-25T16:45:05.706Z,67.20
2022-12-25T16:47:32.661Z,67.20
2022-12-25T16:49:59.787Z,68.70
2022-12-25T16:52:26.688Z,67.20
2022-12-25T16:54:53.523Z,69.60
2022-12-25T16:57:20.428Z,67.40
2022-12-25T16:59:47.358Z,69.40
2022-12-25T17:02:17.140Z,67.50
2022-12-25T17:04:45.148Z,67.10
2022-12-25T17:07:13.325Z,67.20
2022-12-25T17:09:44.039Z,69.60
2022-12-25T17:12:11.560Z,67.30
2022-12-25T17:14:38.404Z,68.20
2022-12-25T17:17:05.273Z,69.60
2022-12-25T17:19:32.247Z,67.20
2022-12-25T17:21:59.894Z,67.20
2022-12-25T17:24:27.375Z,67.10
2022-12-25T17:26:54.569Z,67.10
2022-12-25T17:29:22.600Z,68.90
2022-12-25T17:31:50.120Z,67.10
2022-12-25T17:34:17.123Z,67.20
2022-12-25T17:36:44.042Z,69.20
2022-12-25T17:39:11.357Z,67.60
2022-12-25T17:41:38.294Z,67.40
2022-12-25T17:44:05.346Z,67.50
2022-12-25T17:46:32.727Z,67.60
2022-12-25T17:49:01.189Z,67.70
2022-12-25T17:51:30.023Z,67.70
2022-12-25T17:54:00.094Z,68.40
2022-12-25T17:56:26.915Z,68.10
2022-12-25T17:58:56.056Z,67.80
2022-12-25T18:01:24.441Z,69.90
2022-12-25T18:03:51.610Z,68.80
2022-12-25T18:06:21.442Z,70.10
2022-12-25T18:08:49.120Z,69.30
2022-12-25T18:11:19.003Z,68.50
2022-12-25T18:13:49.983Z,68.20
2022-12-25T18:16:18.701Z,68.70
2022-12-25T18:18:51.887Z,68.20
2022-12-25T18:21:21.531Z,69.70
2022-12-25T18:23:48.946Z,68.30
2022-12-25T18:26:16.160Z,68.40
2022-12-25T18:28:43.963Z,70.80
2022-12-25T18:31:19.362Z,68.50
2022-12-25T18:33:47.011Z,68.50
2022-12-25T18:36:15.654Z,68.60
2022-12-25T18:38:43.123Z,70.60
2022-12-25T18:41:11.091Z,66.90
2022-12-25T18:43:52.947Z,69.90
2022-12-25T18:46:24.206Z,68.60
2022-12-25T18:48:52.021Z,68.50
2022-12-25T18:51:19.196Z,68.60
2022-12-25T18:53:46.345Z,68.60
2022-12-25T18:56:17.247Z,68.80
2022-12-25T18:58:44.750Z,70.50
2022-12-25T19:01:12.997Z,68.60
2022-12-25T19:03:39.948Z,68.40
2022-12-25T19:06:07.068Z,68.50
2022-12-25T19:08:33.994Z,68.50
2022-12-25T19:11:00.907Z,68.50
2022-12-25T19:13:27.765Z,69.50
2022-12-25T19:15:59.050Z,70.10
2022-12-25T19:18:26.069Z,70.30
2022-12-25T19:20:52.973Z,68.40
2022-12-25T19:23:19.785Z,68.80
2022-12-25T19:25:46.767Z,68.40
2022-12-25T19:28:13.798Z,68.40
2022-12-25T19:30:40.616Z,70.10
2022-12-25T19:33:10.052Z,69.20
2022-12-25T19:35:41.573Z,68.00
2022-12-25T19:38:08.417Z,70.20
2022-12-25T19:40:39.728Z,67.90
2022-12-25T19:43:07.699Z,67.80
2022-12-25T19:45:34.813Z,67.80
2022-12-25T19:48:01.696Z,67.80
2022-12-25T19:50:32.438Z,69.80
2022-12-25T19:52:59.445Z,67.70
2022-12-25T19:55:26.378Z,68.50
2022-12-25T19:57:55.306Z,69.20
2022-12-25T20:00:22.165Z,67.70
2022-12-25T20:02:49.141Z,68.50
2022-12-25T20:05:16.217Z,67.50
2022-12-25T20:07:43.028Z,67.50
2022-12-25T20:10:10.200Z,68.90
2022-12-25T20:12:37.045Z,67.50
2022-12-25T20:15:04.131Z,67.50
2022-12-25T20:17:30.914Z,67.40
2022-12-25T20:19:59.145Z,67.60
2022-12-25T20:22:25.968Z,69.40
2022-12-25T20:24:52.751Z,67.20
2022-12-25T20:27:19.791Z,68.50
2022-12-25T20:29:46.905Z,64.90
2022-12-25T20:32:13.965Z,67.10
2022-12-25T20:34:40.919Z,67.10
2022-12-25T20:37:07.786Z,67.20
2022-12-25T20:39:34.650Z,67.50
2022-12-25T20:42:02.800Z,68.90
2022-12-25T20:44:29.621Z,66.90
2022-12-25T20:46:59.376Z,66.80
2022-12-25T20:49:28.938Z,68.10
2022-12-25T20:52:01.352Z,66.70
2022-12-25T20:54:31.711Z,66.70
2022-12-25T20:56:58.533Z,67.50
2022-12-25T20:59:25.600Z,66.60
2022-12-25T21:01:54.332Z,66.50
2022-12-25T21:04:21.241Z,66.50
2022-12-25T21:06:48.020Z,66.50
2022-12-25T21:09:14.798Z,68.10
2022-12-25T21:11:41.649Z,66.40
2022-12-25T21:14:08.957Z,66.40
2022-12-25T21:16:35.839Z,66.30
2022-12-25T21:19:02.805Z,66.30
2022-12-25T21:21:29.671Z,66.30
2022-12-25T21:23:57.324Z,66.20
2022-12-25T21:26:27.031Z,68.30
2022-12-25T21:28:57.517Z,66.00
2022-12-25T21:31:25.190Z,66.00
2022-12-25T21:33:53.208Z,68.20
2022-12-25T21:36:27.103Z,68.00
2022-12-25T21:39:03.013Z,65.80
2022-12-25T21:41:31.899Z,65.80
2022-12-25T21:43:59.219Z,68.20
2022-12-25T21:46:26.541Z,66.80
2022-12-25T21:48:54.310Z,65.80
2022-12-25T21:51:43.989Z,67.70
2022-12-25T21:54:12.729Z,67.70
2022-12-25T21:56:44.943Z,65.60
2022-12-25T21:59:20.365Z,65.50
2022-12-25T22:01:48.378Z,65.50
2022-12-25T22:04:17.171Z,67.60
2022-12-25T22:07:03.341Z,67.80
2022-12-25T22:09:30.679Z,65.50
2022-12-25T22:12:19.068Z,65.40
2022-12-25T22:14:59.101Z,65.50
2022-12-25T22:17:46.962Z,67.70
2022-12-25T22:20:19.658Z,67.60
2022-12-25T22:22:46.925Z,65.20
2022-12-25T22:25:14.741Z,65.20
2022-12-25T22:27:43.273Z,65.10
2022-12-25T22:30:21.963Z,66.00
2022-12-25T22:32:49.508Z,65.00
2022-12-25T22:35:16.788Z,65.10
2022-12-25T22:37:44.626Z,65.10
2022-12-25T22:40:14.843Z,65.00
2022-12-25T22:42:42.246Z,64.90
2022-12-25T22:45:09.960Z,65.20
2022-12-25T22:47:37.025Z,64.80
2022-12-25T22:50:05.125Z,65.40
2022-12-25T22:52:31.992Z,64.90
2022-12-25T22:54:58.921Z,67.10
2022-12-25T22:57:25.864Z,66.30
2022-12-25T22:59:53.068Z,65.20
2022-12-25T23:02:21.084Z,64.80
2022-12-25T23:04:48.144Z,65.10
2022-12-25T23:07:15.672Z,64.80
2022-12-25T23:09:44.043Z,67.20
2022-12-25T23:12:31.648Z,65.60
2022-12-25T23:14:58.818Z,64.80
2022-12-25T23:17:44.497Z,66.50
2022-12-25T23:20:33.421Z,66.70
2022-12-25T23:23:19.430Z,63.90
2022-12-25T23:26:04.675Z,64.60
2022-12-25T23:28:50.094Z,64.60
2022-12-25T23:31:17.368Z,64.60
2022-12-25T23:33:44.258Z,66.90
2022-12-25T23:36:11.160Z,64.70
2022-12-25T23:38:37.994Z,64.70
2022-12-25T23:41:04.847Z,64.60
2022-12-25T23:43:31.775Z,64.70
2022-12-25T23:45:58.606Z,64.70
2022-12-25T23:48:25.412Z,64.70
2022-12-25T23:50:52.241Z,64.60
2022-12-25T23:53:19.092Z,64.60
2022-12-25T23:55:51.554Z,66.80
2022-12-25T23:58:21.920Z,65.90
